Time;durP1;ratioP1;P1;durP2;ratioP2;P2;SDS_P1;SDS_P2;PMS_P1;PMS_P2;Temp;Humidity;BMP_temperature;BMP_pressure;BME280_temperature;BME280_humidity;BME280_pressure;Samples;Min_cycle;Max_cycle;Signal;HPM_P1;HPM_P2
2022/03/13 00:01:56;;;;;;;;;;;7.30;40.90;;;7.06;38.21;100499.03;5008471;28;19929;-78
2022/03/13 00:04:25;;;;;;;;;;;8.40;41.50;;;7.09;37.89;100496.41;5023684;28;20613;-77
2022/03/13 00:06:52;;;;;;;;;;;7.30;41.00;;;7.11;37.30;100508.63;5024604;28;19929;-77
2022/03/13 00:09:21;;;;;;;;;;;7.70;41.00;;;7.06;37.92;100503.44;5008290;28;19925;-76
2022/03/13 00:11:53;;;;;;;;;;;7.40;40.80;;;7.11;37.23;100504.25;5008892;28;19929;-76
2022/03/13 00:14:23;;;;;;;;;;;8.60;41.30;;;7.03;38.07;100500.84;5008687;28;19930;-77
2022/03/13 00:16:51;;;;;;;;;;;7.30;40.70;;;7.07;37.48;100502.53;5008475;28;19937;-77
2022/03/13 00:19:20;;;;;;;;;;;7.30;40.70;;;7.04;37.64;100499.97;5010510;28;19933;-77
2022/03/13 00:21:53;;;;;;;;;;;7.30;40.70;;;7.00;38.03;100511.31;5008073;28;19934;-76
2022/03/13 00:24:22;;;;;;;;;;;7.30;40.70;;;6.96;38.27;100513.09;5009632;28;20628;-76
2022/03/13 00:26:51;;;;;;;;;;;7.20;40.80;;;6.95;38.20;100503.50;5008901;28;19925;-75
2022/03/13 00:29:19;;;;;;;;;;;7.20;40.80;;;6.92;38.14;100503.50;5007481;28;19925;-75
2022/03/13 00:31:46;;;;;;;;;;;7.10;40.80;;;6.88;38.56;100507.91;5008346;28;20324;-74
2022/03/13 00:34:16;;;;;;;;;;;7.10;40.90;;;6.84;38.27;100506.16;5006327;28;19929;-76
2022/03/13 00:36:43;;;;;;;;;;;8.40;41.60;;;6.75;38.43;100512.34;5007164;28;19956;-76
2022/03/13 00:39:11;;;;;;;;;;;7.10;41.00;;;6.81;38.50;100507.09;5008818;28;20000;-75
2022/03/13 00:41:38;;;;;;;;;;;7.00;41.00;;;6.79;38.73;100503.63;5007586;28;19925;-77
2022/03/13 00:44:05;;;;;;;;;;;7.10;41.20;;;6.73;39.18;100497.53;5022371;28;19925;-77
2022/03/13 00:46:35;;;;;;;;;;;7.00;41.30;;;6.65;38.54;100500.22;5008627;28;19936;-76
2022/03/13 00:49:02;;;;;;;;;;;7.00;41.30;;;6.60;38.87;100504.56;5007259;28;19930;-76
2022/03/13 00:51:29;;;;;;;;;;;6.90;41.40;;;6.58;38.72;100511.56;5008573;28;19925;-76
2022/03/13 00:53:56;;;;;;;;;;;6.90;41.20;;;6.63;38.49;100504.53;5023686;28;20515;-76
2022/03/13 00:56:23;;;;;;;;;;;6.90;41.20;;;6.55;38.66;100509.81;5023683;28;19926;-75
2022/03/13 00:58:53;;;;;;;;;;;6.90;41.20;;;6.44;38.95;100515.09;5007853;28;19926;-78
2022/03/13 01:01:19;;;;;;;;;;;6.80;41.30;;;6.21;39.71;100516.09;5023976;28;19932;-77
2022/03/13 01:03:49;;;;;;;;;;;6.80;41.60;;;6.14;39.80;100511.72;5006685;28;20044;-76
2022/03/13 01:06:17;;;;;;;;;;;7.10;41.90;;;6.02;40.36;100511.81;5022948;28;19929;-75
2022/03/13 01:08:46;;;;;;;;;;;6.60;42.00;;;5.89;40.81;100503.97;5023327;28;19964;-75
2022/03/13 01:11:15;;;;;;;;;;;7.60;42.70;;;5.88;40.73;100507.44;5023117;28;19933;-76
2022/03/13 01:13:42;;;;;;;;;;;6.40;42.40;;;5.92;40.36;100508.28;5024874;28;20247;-74
2022/03/13 01:16:21;;;;;;;;;;;6.50;42.70;;;5.86;41.25;100509.19;5022099;28;19936;-74
2022/03/13 01:18:57;;;;;;;;;;;6.30;43.00;;;5.78;41.91;100504.00;5022732;28;19930;-77
2022/03/13 01:21:26;;;;;;;;;;;6.20;43.40;;;5.64;42.15;100505.75;5006545;28;19925;-76
2022/03/13 01:23:57;;;;;;;;;;;6.10;43.30;;;5.60;42.40;100506.59;5021655;28;19936;-74
2022/03/13 01:26:24;;;;;;;;;;;6.00;43.90;;;5.48;42.65;100513.59;5022527;28;19931;-77
2022/03/13 01:28:56;;;;;;;;;;;6.00;43.60;;;5.43;42.70;100512.72;5008135;28;19943;-79
2022/03/13 01:31:27;;;;;;;;;;;5.90;44.00;;;5.24;43.45;100511.88;5008074;28;20024;-77
2022/03/13 01:33:55;;;;;;;;;;;5.90;44.20;;;5.16;43.71;100504.03;5007269;28;19987;-76
2022/03/13 01:36:22;;;;;;;;;;;5.80;44.50;;;5.19;44.11;100508.38;5022338;28;19929;-76
2022/03/13 01:38:52;;;;;;;;;;;6.60;45.20;;;5.24;44.28;100504.91;5023292;28;19929;-73
2022/03/13 01:41:20;;;;;;;;;;;6.20;45.10;;;5.19;43.82;100513.59;5022756;28;19972;-76
2022/03/13 01:43:48;;;;;;;;;;;6.40;45.30;;;5.02;44.39;100506.63;5007506;28;19929;-75
2022/03/13 01:46:16;;;;;;;;;;;5.50;45.20;;;4.93;45.00;100507.47;5022301;28;20387;-77
2022/03/13 01:49:06;;;;;;;;;;;5.50;45.10;;;4.75;45.29;100510.91;5023227;28;19968;-78
2022/03/13 01:51:34;;;;;;;;;;;5.40;45.20;;;4.78;44.96;100507.44;5007983;28;19925;-78
2022/03/13 01:54:10;;;;;;;;;;;5.30;45.50;;;4.64;45.48;100502.22;5021862;28;20398;-76
2022/03/13 01:56:38;;;;;;;;;;;5.20;45.50;;;4.51;46.22;100493.47;5006520;28;19937;-78
2022/03/13 01:59:06;;;;;;;;;;;5.20;46.00;;;4.40;46.17;100501.25;5023037;28;19936;-78
2022/03/13 02:01:34;;;;;;;;;;;5.00;46.10;;;4.22;47.31;100489.06;5014157;28;19926;-78
2022/03/13 02:04:01;;;;;;;;;;;5.30;46.80;;;4.13;47.48;100495.06;5026189;28;19937;-77
2022/03/13 02:06:28;;;;;;;;;;;4.80;46.70;;;4.18;46.87;100492.50;5026691;28;19938;-77
2022/03/13 02:08:55;;;;;;;;;;;4.70;46.70;;;4.23;47.70;100485.59;5022771;28;19930;-77
2022/03/13 02:11:24;;;;;;;;;;;4.70;46.90;;;4.43;45.93;100482.16;5009940;28;19936;-77
2022/03/13 02:13:54;;;;;;;;;;;6.30;47.40;;;4.56;45.10;100480.47;5010071;28;19930;-76
2022/03/13 02:16:22;;;;;;;;;;;4.80;46.00;;;4.63;44.62;100483.09;5009660;28;19929;-76
2022/03/13 02:18:54;;;;;;;;;;;6.80;46.50;;;4.71;43.89;100470.06;5009617;28;20028;-76
2022/03/13 02:21:25;;;;;;;;;;;6.20;45.70;;;4.82;43.72;100475.28;5026183;28;19930;-75
2022/03/13 02:24:00;;;;;;;;;;;5.10;44.80;;;4.86;43.04;100470.97;5009800;28;19926;-76
2022/03/13 02:26:27;;;;;;;;;;;5.10;44.40;;;4.90;42.57;100463.16;5009377;28;19949;-75
2022/03/13 02:28:55;;;;;;;;;;;5.20;44.20;;;4.91;42.75;100464.88;5009093;28;19937;-75
2022/03/13 02:31:34;;;;;;;;;;;5.60;44.30;;;4.94;43.09;100469.25;5032554;28;19936;-80
2022/03/13 02:34:08;;;;;;;;;;;5.30;44.00;;;4.96;42.44;100476.19;5009413;28;19925;-77
2022/03/13 02:36:38;;;;;;;;;;;5.30;43.90;;;4.84;42.87;100486.63;5028731;28;19926;-76
2022/03/13 02:39:07;;;;;;;;;;;5.20;44.00;;;4.77;43.00;100482.25;5010251;28;20386;-76
2022/03/13 02:41:35;;;;;;;;;;;6.00;44.20;;;4.56;43.00;100483.94;5026152;28;19930;-76
2022/03/13 02:44:02;;;;;;;;;;;5.20;43.80;;;4.32;43.76;100497.78;5009576;28;20676;-75
2022/03/13 02:46:49;;;;;;;;;;;5.10;43.90;;;4.40;43.96;100490.84;5025424;28;19930;-77
2022/03/13 02:49:21;;;;;;;;;;;5.00;44.20;;;4.34;43.83;100493.44;5026470;28;19929;-76
2022/03/13 02:51:54;;;;;;;;;;;4.90;44.40;;;4.37;43.79;100485.63;5009833;28;19926;-77
2022/03/13 02:54:22;;;;;;;;;;;5.70;44.90;;;4.38;44.18;100490.84;5009541;28;20623;-77
2022/03/13 02:56:49;;;;;;;;;;;4.80;44.70;;;4.22;44.58;100492.50;5010626;28;20024;-76
2022/03/13 02:59:17;;;;;;;;;;;4.80;44.80;;;4.08;44.76;100491.56;5026502;28;19929;-76
2022/03/13 03:01:43;;;;;;;;;;;4.70;44.90;;;3.92;45.18;100488.03;5010800;28;19930;-75
2022/03/13 03:04:12;;;;;;;;;;;6.80;46.10;;;3.86;46.39;100496.69;5024523;28;19925;-76
2022/03/13 03:06:47;;;;;;;;;;;6.20;46.60;;;3.72;46.87;100490.53;5008797;28;19941;-76
2022/03/13 03:09:17;;;;;;;;;;;5.20;46.60;;;3.77;47.11;100491.41;5010583;28;19936;-76
2022/03/13 03:11:44;;;;;;;;;;;4.40;46.50;;;3.61;48.37;100493.91;5010728;28;20387;-79
2022/03/13 03:14:11;;;;;;;;;;;4.30;47.30;;;3.53;49.02;100493.88;5023340;28;19949;-80
2022/03/13 03:16:38;;;;;;;;;;;4.20;47.70;;;3.43;49.20;100489.44;5024785;28;19933;-79
2022/03/13 03:19:05;;;;;;;;;;;4.20;47.70;;;3.36;49.31;100490.28;5010569;28;20410;-78
2022/03/13 03:21:33;;;;;;;;;;;4.00;47.70;;;3.34;49.39;100486.78;5015225;28;19930;-77
2022/03/13 03:24:00;;;;;;;;;;;4.00;47.90;;;3.38;49.98;100476.44;5012639;28;19925;-77
2022/03/13 03:26:27;;;;;;;;;;;4.00;48.20;;;3.35;50.58;100476.38;5013743;28;19963;-77
2022/03/13 03:28:56;;;;;;;;;;;5.70;49.40;;;3.32;49.65;100480.72;5016652;28;19930;-77
2022/03/13 03:31:23;;;;;;;;;;;3.90;48.00;;;3.31;49.93;100474.63;5009905;28;20477;-80
2022/03/13 03:33:50;;;;;;;;;;;4.50;48.50;;;3.24;50.66;100472.84;5007694;28;19975;-75
2022/03/13 03:36:20;;;;;;;;;;;3.80;48.30;;;3.23;50.58;100484.13;5024577;28;19929;-77
2022/03/13 03:38:50;;;;;;;;;;;3.90;48.20;;;3.10;51.24;100475.31;5027715;28;19929;-78
2022/03/13 03:41:17;;;;;;;;;;;3.70;48.40;;;3.09;50.64;100479.66;5015021;28;19929;-78
2022/03/13 03:43:44;;;;;;;;;;;3.80;48.30;;;3.02;51.04;100469.22;5030873;28;19972;-77
2022/03/13 03:46:13;;;;;;;;;;;4.40;48.80;;;3.10;50.54;100477.94;5008417;28;19976;-75
2022/03/13 03:48:40;;;;;;;;;;;4.90;48.90;;;3.11;50.50;100474.47;5009766;28;20413;-76
2022/03/13 03:51:06;;;;;;;;;;;4.10;48.50;;;3.16;49.80;100470.19;5024932;28;19930;-77
2022/03/13 03:53:33;;;;;;;;;;;3.70;48.20;;;3.20;50.15;100468.47;5024011;28;19933;-78
2022/03/13 03:56:02;;;;;;;;;;;3.60;48.10;;;3.26;49.70;100471.13;5011786;28;19932;-77
2022/03/13 03:58:29;;;;;;;;;;;5.50;48.80;;;3.27;49.80;100462.47;5014748;28;19937;-77
2022/03/13 04:00:59;;;;;;;;;;;3.70;47.90;;;3.23;49.45;100465.91;5014503;28;19983;-78
2022/03/13 04:03:26;;;;;;;;;;;3.80;47.90;;;3.31;48.66;100468.56;5013515;28;19930;-76
2022/03/13 04:05:53;;;;;;;;;;;3.80;47.40;;;3.37;48.56;100466.91;5024948;28;19932;-75
2022/03/13 04:08:20;;;;;;;;;;;3.70;47.30;;;3.40;48.46;100461.69;5009461;28;19929;-79
2022/03/13 04:10:47;;;;;;;;;;;3.80;47.20;;;3.45;47.91;100455.66;5024512;28;19929;-78
2022/03/13 04:13:14;;;;;;;;;;;3.90;46.90;;;3.52;47.37;100460.91;5006648;28;19960;-75
2022/03/13 04:15:44;;;;;;;;;;;3.90;46.60;;;3.63;46.27;100463.56;5008390;28;19929;-75
2022/03/13 04:18:11;;;;;;;;;;;3.90;46.30;;;3.63;46.68;100470.53;5024019;28;19933;-75
2022/03/13 04:20:37;;;;;;;;;;;4.60;46.50;;;3.65;45.62;100469.66;5008523;28;19925;-76
2022/03/13 04:23:04;;;;;;;;;;;4.00;45.90;;;3.63;45.54;100468.78;5007756;28;19929;-77
2022/03/13 04:25:33;;;;;;;;;;;4.40;45.70;;;3.67;45.54;100478.38;5007254;28;19936;-76
2022/03/13 04:27:59;;;;;;;;;;;5.70;46.20;;;3.67;45.63;100474.88;5008961;28;19991;-76
2022/03/13 04:30:28;;;;;;;;;;;4.00;45.70;;;3.56;45.85;100467.00;5008693;28;19937;-77
2022/03/13 04:32:56;;;;;;;;;;;4.10;45.40;;;3.63;44.90;100473.97;5010925;28;19929;-77
2022/03/13 04:35:24;;;;;;;;;;;4.10;45.10;;;3.59;45.47;100471.34;5023651;28;20140;-77
2022/03/13 04:37:51;;;;;;;;;;;4.10;45.20;;;3.58;45.71;100472.22;5026255;28;19929;-76
2022/03/13 04:40:39;;;;;;;;;;;4.00;45.30;;;3.56;45.16;100482.63;5014150;28;20782;-77
2022/03/13 04:43:07;;;;;;;;;;;4.40;45.40;;;3.49;45.43;100484.31;5009705;28;20712;-77
2022/03/13 04:45:34;;;;;;;;;;;6.10;46.20;;;3.59;44.70;100492.16;5006977;28;19960;-77
2022/03/13 04:48:02;;;;;;;;;;;4.00;45.20;;;3.51;44.95;100492.09;5023427;28;19936;-79
2022/03/13 04:50:29;;;;;;;;;;;4.50;45.20;;;3.50;45.20;100492.97;5030611;28;20704;-78
2022/03/13 04:52:56;;;;;;;;;;;4.00;45.30;;;3.34;45.47;100495.44;5015985;28;19992;-78
2022/03/13 04:55:23;;;;;;;;;;;4.70;45.70;;;3.26;45.81;100497.13;5016372;28;19941;-77
2022/03/13 04:57:50;;;;;;;;;;;5.50;46.20;;;2.96;46.26;100496.88;5013734;28;20283;-78
2022/03/13 05:00:18;;;;;;;;;;;3.80;45.30;;;2.84;47.00;100513.22;5024977;28;19929;-77
2022/03/13 05:02:45;;;;;;;;;;;3.60;45.60;;;2.62;47.33;100504.31;5006959;28;20287;-77
2022/03/13 05:05:12;;;;;;;;;;;3.70;45.80;;;2.66;48.22;100506.13;5009203;28;20051;-77
2022/03/13 05:07:41;;;;;;;;;;;3.90;46.90;;;2.78;48.54;100501.88;5011743;28;19930;-77
2022/03/13 05:10:13;;;;;;;;;;;3.40;46.90;;;2.78;48.96;100514.88;5007719;28;19929;-78
2022/03/13 05:12:39;;;;;;;;;;;4.20;48.20;;;2.50;50.02;100505.06;5007898;28;19947;-75
2022/03/13 05:15:07;;;;;;;;;;;3.20;48.20;;;2.46;51.04;100511.09;5023142;28;19992;-76
2022/03/13 05:17:35;;;;;;;;;;;3.20;48.50;;;2.40;51.57;100500.63;5026787;28;19932;-77
2022/03/13 05:20:02;;;;;;;;;;;3.10;49.00;;;2.48;51.43;100513.69;5025421;28;20461;-77
2022/03/13 05:22:29;;;;;;;;;;;3.10;48.90;;;2.32;52.69;100512.66;5024616;28;19952;-76
2022/03/13 05:24:58;;;;;;;;;;;3.00;49.50;;;2.39;51.57;100511.84;5006680;28;20024;-77
2022/03/13 05:27:26;;;;;;;;;;;3.00;49.10;;;2.47;50.94;100520.63;5023948;28;19936;-76
2022/03/13 05:29:53;;;;;;;;;;;3.00;48.90;;;2.51;50.82;100518.94;5024442;28;19936;-80
2022/03/13 05:32:21;;;;;;;;;;;3.00;48.80;;;2.55;49.95;100524.16;5007754;28;19929;-78
2022/03/13 05:34:48;;;;;;;;;;;3.00;48.50;;;2.69;49.04;100524.34;5023074;28;19929;-79
2022/03/13 05:37:15;;;;;;;;;;;3.10;47.90;;;2.76;48.27;100535.69;5006824;28;20291;-78
2022/03/13 05:39:42;;;;;;;;;;;3.20;47.70;;;2.80;47.56;100540.03;5009148;28;19964;-77
2022/03/13 05:42:11;;;;;;;;;;;3.20;47.20;;;2.88;47.35;100527.13;5012840;28;19933;-77
2022/03/13 05:44:37;;;;;;;;;;;3.20;46.90;;;2.93;47.40;100534.97;5030092;28;19930;-78
2022/03/13 05:47:04;;;;;;;;;;;3.20;46.80;;;2.95;47.37;100535.84;5034033;28;20405;-76
2022/03/13 05:49:31;;;;;;;;;;;3.30;46.90;;;2.95;47.39;100541.06;5027930;28;19952;-76
2022/03/13 05:52:00;;;;;;;;;;;3.40;46.80;;;2.92;46.65;100547.09;5010704;28;19929;-76
2022/03/13 05:54:27;;;;;;;;;;;4.50;47.20;;;2.90;47.44;100548.81;5010693;28;19929;-76
2022/03/13 05:56:54;;;;;;;;;;;2.90;46.40;;;2.92;46.72;100546.22;5011639;28;19929;-76
2022/03/13 05:59:22;;;;;;;;;;;3.50;46.70;;;2.99;46.66;100555.81;5026568;28;19925;-76
2022/03/13 06:01:50;;;;;;;;;;;5.40;47.60;;;3.02;46.02;100555.00;5011292;28;20390;-76
2022/03/13 06:04:17;;;;;;;;;;;3.50;46.30;;;3.03;46.68;100565.38;5010358;28;20035;-76
2022/03/13 06:06:44;;;;;;;;;;;5.00;47.20;;;3.02;46.30;100562.78;5010017;28;19957;-76
2022/03/13 06:09:11;;;;;;;;;;;5.30;47.40;;;3.08;46.38;100566.31;5027022;28;20398;-76
2022/03/13 06:11:38;;;;;;;;;;;3.50;46.30;;;3.10;46.27;100572.41;5012730;28;19926;-78
2022/03/13 06:14:08;;;;;;;;;;;3.50;46.20;;;3.04;46.13;100582.72;4995972;28;19931;-79
2022/03/13 06:16:35;;;;;;;;;;;3.50;46.20;;;3.04;46.37;100572.31;5011958;28;19984;-79
2022/03/13 06:19:02;;;;;;;;;;;4.50;46.70;;;3.12;45.86;100575.00;5012262;28;19933;-79
2022/03/13 06:21:29;;;;;;;;;;;3.40;45.90;;;3.10;46.15;100566.31;5010219;28;19925;-76
2022/03/13 06:23:56;;;;;;;;;;;3.50;46.10;;;3.08;46.21;100575.84;4993282;28;19969;-78
2022/03/13 06:26:23;;;;;;;;;;;3.60;46.30;;;3.12;46.17;100573.28;4995387;28;20302;-77
2022/03/13 06:28:52;;;;;;;;;;;5.50;47.20;;;3.18;46.25;100575.09;5010107;28;19937;-78
2022/03/13 06:31:19;;;;;;;;;;;3.60;46.30;;;3.21;45.78;100577.72;5010980;28;19932;-75
2022/03/13 06:33:46;;;;;;;;;;;3.60;45.90;;;3.30;45.32;100578.66;5010024;28;19980;-78
2022/03/13 06:36:13;;;;;;;;;;;3.60;45.70;;;3.35;45.11;100585.63;5000976;28;19925;-78
2022/03/13 06:38:40;;;;;;;;;;;4.20;45.90;;;3.37;45.38;100589.16;5019038;28;19933;-78
2022/03/13 06:41:06;;;;;;;;;;;3.80;46.00;;;3.43;45.00;100592.66;4998829;28;19929;-79
2022/03/13 06:43:36;;;;;;;;;;;3.90;46.00;;;3.52;45.10;100598.81;5009105;28;19932;-80
2022/03/13 06:46:03;;;;;;;;;;;5.90;46.40;;;3.59;44.42;100596.25;5010825;28;19937;-77
2022/03/13 06:48:31;;;;;;;;;;;4.00;45.20;;;3.64;44.42;100595.41;5009733;28;19930;-77
2022/03/13 06:50:58;;;;;;;;;;;3.90;44.90;;;3.67;44.24;100595.47;4993813;28;19957;-77
2022/03/13 06:53:25;;;;;;;;;;;4.00;44.90;;;3.72;43.76;100586.81;5009348;28;19940;-76
2022/03/13 06:55:52;;;;;;;;;;;4.80;45.20;;;3.73;43.69;100589.41;5009487;28;19929;-77
2022/03/13 06:58:19;;;;;;;;;;;4.10;44.70;;;3.80;43.55;100595.53;4993492;28;19936;-77
2022/03/13 07:00:47;;;;;;;;;;;4.10;44.70;;;3.88;43.49;100601.69;4993147;28;19936;-77
2022/03/13 07:03:29;;;;;;;;;;;4.20;44.60;;;3.90;43.64;100597.38;5009142;28;19963;-78
2022/03/13 07:05:56;;;;;;;;;;;4.30;44.50;;;3.99;43.40;100599.16;5011079;28;19929;-78
2022/03/13 07:08:23;;;;;;;;;;;4.30;44.60;;;4.12;43.07;100592.28;5010826;28;20387;-78
2022/03/13 07:10:50;;;;;;;;;;;4.40;44.50;;;4.16;42.81;100595.78;5009614;28;19932;-77
2022/03/13 07:13:18;;;;;;;;;;;2.80;43.50;;;4.20;42.68;100606.25;5008812;28;20414;-75
2022/03/13 07:15:45;;;;;;;;;;;4.70;44.30;;;4.28;42.98;100613.22;5016222;28;19935;-78
2022/03/13 07:18:12;;;;;;;;;;;4.50;44.20;;;4.33;42.50;100615.00;5026930;28;19929;-79
2022/03/13 07:20:39;;;;;;;;;;;5.50;44.40;;;4.38;42.11;100612.41;5025433;28;19951;-79
2022/03/13 07:23:06;;;;;;;;;;;4.70;43.70;;;4.49;41.76;100613.34;5025031;28;20175;-79
2022/03/13 07:25:33;;;;;;;;;;;4.70;43.50;;;4.58;41.71;100616.84;5009247;28;19929;-78
2022/03/13 07:28:00;;;;;;;;;;;4.80;43.60;;;4.65;41.14;100610.81;5025417;28;19932;-77
2022/03/13 07:30:27;;;;;;;;;;;6.60;44.10;;;4.67;40.94;100609.09;5008588;28;19930;-77
2022/03/13 07:32:54;;;;;;;;;;;5.00;43.00;;;4.80;41.74;100613.47;5025072;28;20306;-77
2022/03/13 07:35:21;;;;;;;;;;;5.00;43.10;;;4.85;41.16;100607.41;5008161;28;19925;-78
2022/03/13 07:37:47;;;;;;;;;;;5.10;43.00;;;4.91;41.01;100603.09;5011896;28;20287;-78
2022/03/13 07:40:15;;;;;;;;;;;5.20;43.00;;;4.96;40.67;100601.34;5012326;28;20382;-78
2022/03/13 07:42:42;;;;;;;;;;;5.20;42.70;;;5.06;41.00;100602.25;5027149;28;19929;-79
2022/03/13 07:45:11;;;;;;;;;;;6.00;43.00;;;5.12;40.21;100601.41;5010961;28;19937;-79
2022/03/13 07:47:38;;;;;;;;;;;5.40;42.40;;;5.19;40.44;100589.22;5027715;28;19929;-78
2022/03/13 07:50:06;;;;;;;;;;;5.50;42.30;;;5.28;40.01;100593.59;5027477;28;20013;-78
2022/03/13 07:52:32;;;;;;;;;;;5.50;42.20;;;5.40;40.19;100593.63;5026425;28;19929;-78
2022/03/13 07:54:59;;;;;;;;;;;5.60;42.40;;;5.51;39.85;100586.66;4993703;28;19929;-79
2022/03/13 07:57:28;;;;;;;;;;;6.10;42.40;;;5.62;39.45;100584.06;5011234;28;20496;-78
2022/03/13 07:59:55;;;;;;;;;;;5.80;42.00;;;5.74;39.18;100577.09;5011616;28;19976;-78
2022/03/13 08:02:22;;;;;;;;;;;5.90;42.40;;;5.86;39.22;100579.72;5006685;28;20734;-78
2022/03/13 08:04:49;;;;;;;;;;;6.00;41.80;;;6.00;39.61;100571.84;5009909;28;19929;-77
2022/03/13 08:07:16;;;;;;;;;;;6.10;41.90;;;6.14;38.82;100566.59;4993699;28;19957;-76
2022/03/13 08:09:43;;;;;;;;;;;6.90;41.90;;;6.29;38.34;100565.72;4993314;28;19945;-76
2022/03/13 08:12:10;;;;;;;;;;;6.40;41.30;;;6.38;38.26;100572.66;4994331;28;19936;-80
2022/03/13 08:14:37;;;;;;;;;;;6.90;41.30;;;6.52;38.29;100577.81;5013912;28;20616;-79
2022/03/13 08:17:04;;;;;;;;;;;6.70;41.20;;;6.61;38.61;100574.28;4997100;28;19956;-79
2022/03/13 08:19:31;;;;;;;;;;;7.90;41.80;;;6.72;37.95;100569.88;5015079;28;19930;-79
2022/03/13 08:21:58;;;;;;;;;;;6.80;41.10;;;6.87;38.19;100568.06;5009349;28;19925;-80
2022/03/13 08:24:26;;;;;;;;;;;6.90;41.10;;;6.95;37.98;100566.28;4976383;28;20301;-78
2022/03/13 08:26:53;;;;;;;;;;;7.00;41.10;;;7.01;38.45;100562.75;4995943;28;19931;-78
2022/03/13 08:29:20;;;;;;;;;;;8.50;42.10;;;7.06;38.23;100561.84;5010515;28;19948;-78
2022/03/13 08:31:47;;;;;;;;;;;7.20;41.20;;;7.13;37.82;100560.06;5007119;28;20702;-76
2022/03/13 08:34:14;;;;;;;;;;;7.30;41.10;;;7.20;37.92;100571.34;5009671;28;19932;-76
2022/03/13 08:36:46;;;;;;;;;;;7.40;41.10;;;7.34;38.15;100574.75;5024523;28;19925;-74
2022/03/13 08:39:13;;;;;;;;;;;7.50;41.30;;;7.46;37.97;100568.53;5007139;28;19926;-75
2022/03/13 08:41:40;;;;;;;;;;;7.60;41.30;;;7.56;37.72;100569.31;5009022;28;19929;-75
2022/03/13 08:44:08;;;;;;;;;;;8.90;41.90;;;7.68;37.62;100562.25;5006698;28;19937;-75
2022/03/13 08:46:35;;;;;;;;;;;7.70;41.00;;;7.73;37.40;100561.34;5008146;28;20438;-75
2022/03/13 08:49:02;;;;;;;;;;;7.80;40.80;;;7.88;37.63;100556.84;5007619;28;19967;-74
2022/03/13 08:51:29;;;;;;;;;;;8.50;41.30;;;8.02;38.13;100551.44;5010850;28;19925;-75
2022/03/13 08:53:56;;;;;;;;;;;8.00;41.40;;;8.12;37.18;100558.34;5017879;28;19936;-82
2022/03/13 08:56:24;;;;;;;;;;;8.10;41.10;;;8.22;37.40;100567.84;5032851;28;19913;-77
2022/03/13 08:58:53;;;;;;;;;;;8.20;41.10;;;8.35;37.54;100571.19;5030005;28;19977;-79
2022/03/13 09:01:21;;;;;;;;;;;8.40;41.20;;;8.46;37.24;100578.91;5040728;28;19925;-80
2022/03/13 09:03:50;;;;;;;;;;;8.50;41.00;;;8.47;37.10;100574.56;5009028;28;19929;-80
2022/03/13 09:06:22;;;;;;;;;;;8.50;40.70;;;8.57;37.00;100560.47;5024018;28;19933;-80
2022/03/13 09:08:49;;;;;;;;;;;8.90;40.90;;;8.76;36.84;100550.59;5040030;28;19926;-80
2022/03/13 09:11:17;;;;;;;;;;;9.20;41.00;;;8.90;36.90;100554.78;5037704;28;19968;-78
2022/03/13 09:13:44;;;;;;;;;;;10.10;41.60;;;9.05;36.88;100553.69;5012069;28;19949;-79
2022/03/13 09:16:11;;;;;;;;;;;9.00;40.90;;;9.13;36.53;100545.69;5015701;28;19941;-78
2022/03/13 09:18:39;;;;;;;;;;;10.50;41.50;;;9.20;36.96;100547.34;5023993;28;19929;-79
2022/03/13 09:21:06;;;;;;;;;;;9.20;40.70;;;9.29;36.71;100548.97;5001775;28;19934;-79
2022/03/13 09:23:34;;;;;;;;;;;9.50;41.00;;;9.33;36.33;100556.78;5030808;28;19936;-78
2022/03/13 09:26:01;;;;;;;;;;;9.30;40.50;;;9.33;36.36;100543.66;5028701;28;19937;-78
2022/03/13 09:28:29;;;;;;;;;;;9.40;40.30;;;9.50;36.32;100545.13;4996340;28;19930;-79
2022/03/13 09:30:56;;;;;;;;;;;9.50;40.60;;;9.58;36.55;100545.84;5010018;28;19939;-77
2022/03/13 09:33:24;;;;;;;;;;;9.80;40.80;;;9.65;36.60;100538.75;5006195;28;19936;-78
2022/03/13 09:35:51;;;;;;;;;;;9.60;40.70;;;9.84;37.12;100527.91;4998481;28;20379;-78
2022/03/13 09:38:18;;;;;;;;;;;10.30;41.40;;;9.89;37.02;100532.16;5009750;28;20003;-78
2022/03/13 09:40:46;;;;;;;;;;;9.80;41.10;;;10.02;37.16;100534.56;5005811;28;19933;-76
2022/03/13 09:43:13;;;;;;;;;;;9.90;41.10;;;10.11;36.98;100533.53;4990894;28;19925;-77
2022/03/13 09:45:41;;;;;;;;;;;9.90;41.00;;;10.23;36.52;100545.59;4993161;28;19926;-77
2022/03/13 09:48:11;;;;;;;;;;;10.70;41.10;;;10.35;36.24;100546.22;5008710;28;20361;-79
2022/03/13 09:50:39;;;;;;;;;;;10.20;40.70;;;10.53;36.16;100541.50;5025600;28;19933;-78
2022/03/13 09:53:06;;;;;;;;;;;10.40;40.60;;;10.60;36.43;100542.22;5014688;28;19934;-77
2022/03/13 09:55:36;;;;;;;;;;;10.50;40.70;;;10.72;36.39;100535.81;5009574;28;20340;-78
2022/03/13 09:58:04;;;;;;;;;;;10.60;40.80;;;10.84;36.18;100539.94;5007915;28;19997;-78
2022/03/13 10:00:31;;;;;;;;;;;10.70;40.60;;;10.89;36.38;100536.31;5008694;28;19929;-77
2022/03/13 10:02:59;;;;;;;;;;;10.80;40.90;;;11.02;36.43;100538.66;5002448;28;19929;-77
2022/03/13 10:05:27;;;;;;;;;;;10.90;41.00;;;11.10;36.21;100534.09;5004399;28;19929;-77
2022/03/13 10:08:00;;;;;;;;;;;10.90;40.70;;;11.21;35.93;100529.44;5012585;28;19949;-79
2022/03/13 10:10:29;;;;;;;;;;;11.10;41.00;;;11.44;35.78;100538.56;4996220;28;19929;-79
2022/03/13 10:12:57;;;;;;;;;;;11.20;40.70;;;11.55;35.58;100527.72;5012396;28;19937;-78
2022/03/13 10:15:25;;;;;;;;;;;11.40;40.60;;;11.68;35.63;100527.41;5013422;28;20024;-76
2022/03/13 10:17:52;;;;;;;;;;;11.50;40.60;;;11.71;35.41;100532.59;5006877;28;20672;-76
2022/03/13 10:20:23;;;;;;;;;;;11.60;40.50;;;11.80;35.23;100523.59;4991375;28;20044;-76
2022/03/13 10:22:59;;;;;;;;;;;11.70;40.20;;;12.02;35.05;100521.28;5010011;28;19929;-77
2022/03/13 10:25:39;;;;;;;;;;;11.80;40.00;;;12.09;35.02;100514.91;4991915;28;19933;-76
2022/03/13 10:28:28;;;;;;;;;;;11.90;40.20;;;12.31;34.47;100511.69;4978275;28;19933;-76
2022/03/13 10:30:58;;;;;;;;;;;12.00;40.00;;;12.39;34.67;100506.19;5013331;28;20020;-77
2022/03/13 10:33:45;;;;;;;;;;;12.20;40.10;;;12.57;34.58;100502.13;5029027;28;19949;-78
2022/03/13 10:36:17;;;;;;;;;;;12.30;40.00;;;12.65;34.31;100505.38;5013614;28;19997;-76
2022/03/13 10:38:46;;;;;;;;;;;12.40;39.80;;;12.76;33.97;100502.41;5020116;28;19949;-79
2022/03/13 10:41:13;;;;;;;;;;;12.60;40.00;;;12.92;33.92;100494.88;5010305;28;19930;-77
2022/03/13 10:43:46;;;;;;;;;;;12.70;39.50;;;13.02;33.75;100490.16;5012037;28;19979;-78
2022/03/13 10:46:28;;;;;;;;;;;12.80;39.50;;;12.98;33.48;100480.63;5012764;28;19936;-77
2022/03/13 10:48:57;;;;;;;;;;;12.90;39.10;;;13.19;33.98;100484.34;4997257;28;20016;-77
2022/03/13 10:51:36;;;;;;;;;;;13.00;39.30;;;13.31;33.69;100486.56;5014737;28;19929;-77
2022/03/13 10:54:04;;;;;;;;;;;13.10;39.40;;;13.41;33.32;100480.97;5015070;28;20238;-77
2022/03/13 10:56:31;;;;;;;;;;;13.20;39.10;;;13.29;33.21;100479.63;4994724;28;19983;-78
2022/03/13 10:58:59;;;;;;;;;;;13.30;38.80;;;13.33;33.65;100483.88;5011772;28;19930;-78
2022/03/13 11:01:27;;;;;;;;;;;13.30;39.20;;;13.33;33.35;100478.59;5011857;28;20393;-77
2022/03/13 11:04:06;;;;;;;;;;;13.30;39.00;;;13.46;32.75;100479.94;4996418;28;19925;-78
2022/03/13 11:06:33;;;;;;;;;;;13.30;38.70;;;13.51;33.45;100482.44;5015512;28;20288;-79
2022/03/13 11:09:00;;;;;;;;;;;13.40;38.90;;;13.63;32.91;100477.59;5012517;28;19969;-76
2022/03/13 11:11:28;;;;;;;;;;;13.60;38.90;;;13.81;32.88;100473.47;5025154;28;19933;-77
2022/03/13 11:13:59;;;;;;;;;;;13.60;38.80;;;13.86;32.52;100474.16;5008244;28;19926;-76
2022/03/13 11:16:31;;;;;;;;;;;13.70;38.70;;;13.99;32.60;100467.50;5009127;28;19933;-78
2022/03/13 11:19:05;;;;;;;;;;;13.80;38.60;;;14.30;32.46;100462.84;5009198;28;19937;-77
2022/03/13 11:21:33;;;;;;;;;;;14.00;38.70;;;14.45;32.83;100461.38;5009116;28;19929;-78
2022/03/13 11:24:03;;;;;;;;;;;14.80;39.20;;;14.51;32.27;100462.94;5008111;28;20024;-77
2022/03/13 11:26:31;;;;;;;;;;;14.30;38.70;;;14.71;31.78;100457.75;5009685;28;19932;-77
2022/03/13 11:28:58;;;;;;;;;;;14.40;38.30;;;14.71;31.21;100441.84;5011432;28;19953;-77